createdAt,value
2023-02-22T00:00:48.215Z,87.90
2023-02-22T00:03:16.236Z,87.99
2023-02-22T00:05:47.234Z,87.77
2023-02-22T00:08:15.544Z,88.24
2023-02-22T00:10:42.402Z,88.09
2023-02-22T00:13:10.512Z,88.52
2023-02-22T00:15:37.074Z,88.87
2023-02-22T00:18:04.744Z,88.55
2023-02-22T00:20:31.147Z,88.75
2023-02-22T00:22:57.621Z,88.35
2023-02-22T00:25:25.110Z,88.71
2023-02-22T00:27:52.904Z,88.98
2023-02-22T00:30:22.641Z,88.67
2023-02-22T00:32:50.206Z,89.09
2023-02-22T00:35:18.946Z,89.53
2023-02-22T00:37:48.380Z,89.87
2023-02-22T00:40:17.957Z,89.14
2023-02-22T00:42:45.749Z,89.40
2023-02-22T00:45:13.381Z,89.32
2023-02-22T00:47:39.778Z,88.48
2023-02-22T00:50:06.225Z,88.82
2023-02-22T00:52:32.671Z,89.18
2023-02-22T00:55:00.018Z,89.52
2023-02-22T00:57:26.465Z,89.14
2023-02-22T00:59:52.942Z,89.14
2023-02-22T01:02:19.590Z,89.43
2023-02-22T01:04:46.664Z,89.05
2023-02-22T01:07:14.248Z,89.17
2023-02-22T01:09:41.564Z,89.49
2023-02-22T01:12:08.709Z,89.50
2023-02-22T01:14:35.176Z,89.32
2023-02-22T01:17:01.598Z,89.26
2023-02-22T01:19:28.006Z,89.15
2023-02-22T01:21:54.569Z,88.83
2023-02-22T01:24:20.969Z,88.88
2023-02-22T01:26:52.024Z,89.04
2023-02-22T01:29:21.152Z,89.38
2023-02-22T01:31:54.452Z,88.84
2023-02-22T01:34:22.549Z,88.70
2023-02-22T01:36:49.162Z,89.71
2023-02-22T01:39:17.988Z,89.22
2023-02-22T01:41:45.780Z,89.52
2023-02-22T01:44:21.083Z,89.68
2023-02-22T01:46:47.548Z,90.33
2023-02-22T01:49:15.163Z,89.95
2023-02-22T01:51:48.207Z,89.80
2023-02-22T01:54:28.032Z,90.69
2023-02-22T01:57:01.199Z,89.86
2023-02-22T01:59:29.463Z,89.68
2023-02-22T02:01:55.989Z,90.15
2023-02-22T02:04:26.002Z,90.11
2023-02-22T02:07:07.640Z,89.67
2023-02-22T02:09:42.435Z,90.15
2023-02-22T02:12:10.337Z,90.26
2023-02-22T02:14:40.397Z,90.46
2023-02-22T02:17:09.768Z,90.26
2023-02-22T02:19:59.202Z,90.20
2023-02-22T02:22:42.530Z,90.43
2023-02-22T02:25:19.337Z,90.54
2023-02-22T02:28:10.707Z,90.31
2023-02-22T02:31:02.471Z,90.55
2023-02-22T02:33:43.974Z,90.69
2023-02-22T02:36:17.700Z,91.05
2023-02-22T02:38:55.867Z,90.53
2023-02-22T02:41:48.624Z,90.30
2023-02-22T02:44:19.824Z,89.96
2023-02-22T02:47:15.435Z,90.58
2023-02-22T02:49:59.772Z,89.97
2023-02-22T02:52:27.375Z,91.07
2023-02-22T02:54:54.773Z,91.57
2023-02-22T02:57:21.498Z,91.03
2023-02-22T02:59:48.123Z,91.27
2023-02-22T03:02:28.033Z,91.41
2023-02-22T03:05:09.222Z,91.05
2023-02-22T03:07:45.703Z,91.49
2023-02-22T03:10:50.267Z,91.75
2023-02-22T03:13:23.694Z,91.18
2023-02-22T03:16:16.627Z,91.60
2023-02-22T03:18:42.984Z,90.38
2023-02-22T03:21:33.821Z,91.00
2023-02-22T03:24:20.005Z,91.38
2023-02-22T03:27:09.281Z,91.02
2023-02-22T03:29:39.986Z,91.39
2023-02-22T03:32:09.764Z,91.57
2023-02-22T03:34:44.093Z,90.95
2023-02-22T03:37:22.648Z,91.26
2023-02-22T03:39:50.879Z,91.50
2023-02-22T03:42:21.945Z,91.73
2023-02-22T03:44:49.031Z,91.36
2023-02-22T03:47:23.242Z,91.00
2023-02-22T03:49:54.003Z,91.02
2023-02-22T03:52:23.413Z,90.55
2023-02-22T03:54:53.747Z,91.81
2023-02-22T03:57:27.039Z,91.42
2023-02-22T03:59:53.483Z,91.46
2023-02-22T04:02:20.490Z,91.54
2023-02-22T04:04:47.252Z,91.27
2023-02-22T04:07:13.767Z,91.51
2023-02-22T04:09:40.203Z,91.32
2023-02-22T04:12:06.895Z,91.13
2023-02-22T04:14:33.344Z,91.84
2023-02-22T04:17:00.012Z,91.58
2023-02-22T04:19:26.507Z,91.55
2023-02-22T04:21:52.983Z,91.85
2023-02-22T04:24:19.387Z,92.05
2023-02-22T04:26:45.920Z,91.75
2023-02-22T04:29:12.657Z,91.36
2023-02-22T04:31:39.174Z,91.19
2023-02-22T04:34:06.016Z,91.63
2023-02-22T04:36:32.528Z,91.62
2023-02-22T04:38:59.494Z,91.78
2023-02-22T04:41:25.912Z,91.66
2023-02-22T04:43:52.522Z,91.93
2023-02-22T04:46:19.838Z,91.45
2023-02-22T04:48:46.370Z,91.50
2023-02-22T04:51:13.072Z,91.37
2023-02-22T04:53:39.486Z,91.30
2023-02-22T04:56:06.451Z,91.27
2023-02-22T04:58:32.960Z,91.03
2023-02-22T05:01:00.599Z,91.30
2023-02-22T05:03:27.157Z,92.26
2023-02-22T05:05:53.595Z,91.16
2023-02-22T05:08:19.956Z,90.98
2023-02-22T05:10:46.430Z,90.82
2023-02-22T05:13:12.811Z,91.91
2023-02-22T05:15:39.154Z,91.23
2023-02-22T05:18:06.532Z,91.83
2023-02-22T05:20:34.389Z,91.90
2023-02-22T05:23:01.852Z,91.67
2023-02-22T05:25:28.564Z,91.93
2023-02-22T05:27:57.364Z,91.74
2023-02-22T05:30:26.847Z,91.70
2023-02-22T05:32:53.422Z,91.61
2023-02-22T05:35:38.460Z,91.99
2023-02-22T05:38:05.821Z,92.24
2023-02-22T05:40:32.460Z,91.83
2023-02-22T05:42:59.067Z,92.07
2023-02-22T05:45:27.362Z,91.91
2023-02-22T05:47:54.634Z,92.19
2023-02-22T05:50:21.532Z,91.24
2023-02-22T05:52:48.632Z,90.62
2023-02-22T05:55:16.718Z,90.74
2023-02-22T05:57:43.285Z,90.79
2023-02-22T06:00:11.358Z,90.90
2023-02-22T06:02:37.848Z,90.95
2023-02-22T06:05:04.289Z,90.32
2023-02-22T06:07:30.645Z,90.45
2023-02-22T06:09:57.070Z,90.16
2023-02-22T06:12:23.541Z,90.50
2023-02-22T06:14:49.988Z,92.11
2023-02-22T06:17:18.046Z,90.95
2023-02-22T06:19:45.709Z,90.94
2023-02-22T06:22:17.944Z,90.91
2023-02-22T06:24:44.327Z,90.62
2023-02-22T06:27:10.772Z,91.43
2023-02-22T06:29:37.512Z,90.85
2023-02-22T06:32:04.244Z,90.54
2023-02-22T06:34:30.851Z,90.87
2023-02-22T06:36:59.676Z,91.05
2023-02-22T06:39:26.554Z,90.82
2023-02-22T06:41:55.145Z,90.98
2023-02-22T06:44:21.663Z,91.61
2023-02-22T06:46:51.039Z,91.92
2023-02-22T06:49:18.582Z,91.68
2023-02-22T06:51:45.565Z,91.51
2023-02-22T06:54:12.100Z,90.88
2023-02-22T06:56:38.560Z,91.94
2023-02-22T06:59:04.967Z,91.66
2023-02-22T07:01:31.512Z,92.35
2023-02-22T07:03:57.984Z,92.42
2023-02-22T07:06:24.493Z,92.19
2023-02-22T07:08:51.025Z,91.51
2023-02-22T07:11:18.276Z,92.12
2023-02-22T07:13:44.963Z,91.87
2023-02-22T07:16:11.500Z,91.54
2023-02-22T07:18:38.610Z,91.72
2023-02-22T07:21:05.505Z,91.05
2023-02-22T07:23:31.882Z,91.00
2023-02-22T07:26:01.118Z,91.09
2023-02-22T07:28:27.557Z,91.63
2023-02-22T07:30:54.234Z,91.23
2023-02-22T07:33:20.837Z,91.22
2023-02-22T07:35:49.046Z,90.38
2023-02-22T07:38:27.927Z,90.58
2023-02-22T07:40:55.863Z,89.88
2023-02-22T07:43:30.614Z,89.92
2023-02-22T07:46:01.470Z,89.20
2023-02-22T07:48:33.936Z,88.96
2023-02-22T07:51:01.317Z,88.63
2023-02-22T07:53:31.589Z,88.82
2023-02-22T07:56:01.440Z,88.64
2023-02-22T07:58:29.433Z,87.92
2023-02-22T08:00:57.055Z,87.13
2023-02-22T08:03:27.464Z,88.37
2023-02-22T08:05:56.269Z,88.87
2023-02-22T08:08:23.654Z,88.44
2023-02-22T08:10:52.298Z,86.83
2023-02-22T08:13:23.117Z,88.04
2023-02-22T08:15:53.347Z,87.93
2023-02-22T08:18:27.912Z,87.34
2023-02-22T08:20:56.860Z,87.37
2023-02-22T08:23:28.037Z,87.33
2023-02-22T08:25:56.847Z,87.13
2023-02-22T08:28:25.745Z,87.43
2023-02-22T08:31:02.658Z,88.16
2023-02-22T08:33:32.689Z,88.09
2023-02-22T08:36:03.003Z,87.87
2023-02-22T08:38:38.967Z,87.64
2023-02-22T08:41:08.258Z,86.58
2023-02-22T08:43:38.368Z,87.82
2023-02-22T08:46:12.352Z,87.67
2023-02-22T08:48:49.731Z,88.59
2023-02-22T08:51:19.543Z,89.62
2023-02-22T08:53:49.851Z,90.10
2023-02-22T08:56:18.790Z,89.54
2023-02-22T08:58:46.504Z,90.03
2023-02-22T09:01:19.315Z,89.16
2023-02-22T09:03:53.228Z,88.37
2023-02-22T09:06:21.738Z,88.78
2023-02-22T09:08:52.570Z,88.41
2023-02-22T09:11:21.172Z,88.22
2023-02-22T09:13:51.304Z,89.34
2023-02-22T09:16:22.902Z,89.45
2023-02-22T09:18:52.656Z,89.09
2023-02-22T09:21:31.620Z,89.45
2023-02-22T09:24:01.675Z,88.65
2023-02-22T09:26:29.968Z,88.96
2023-02-22T09:28:59.003Z,88.18
2023-02-22T09:31:32.681Z,88.41
2023-02-22T09:33:59.377Z,88.47
2023-02-22T09:36:27.240Z,88.75
2023-02-22T09:38:56.800Z,88.00
2023-02-22T09:41:37.901Z,88.57
2023-02-22T09:44:32.706Z,89.11
2023-02-22T09:46:59.173Z,90.08
2023-02-22T09:49:47.331Z,89.17
2023-02-22T09:52:32.391Z,88.36
2023-02-22T09:55:16.318Z,87.27
2023-02-22T09:57:46.152Z,87.89
2023-02-22T10:00:20.912Z,88.23
2023-02-22T10:03:17.149Z,86.95
2023-02-22T10:06:00.321Z,85.68
2023-02-22T10:08:35.511Z,87.11
2023-02-22T10:11:33.005Z,86.24
2023-02-22T10:14:30.572Z,86.01
2023-02-22T10:17:11.577Z,88.03
2023-02-22T10:19:54.835Z,88.64
2023-02-22T10:22:37.640Z,88.17
2023-02-22T10:25:13.659Z,88.17
2023-02-22T10:27:51.031Z,88.19
2023-02-22T10:30:28.316Z,86.82
2023-02-22T10:33:15.709Z,87.65
2023-02-22T10:35:47.199Z,86.96
2023-02-22T10:38:23.916Z,87.53
2023-02-22T10:41:26.703Z,86.45
2023-02-22T10:44:03.797Z,86.43
2023-02-22T10:46:34.883Z,86.41
2023-02-22T10:49:09.227Z,85.38
2023-02-22T10:51:39.592Z,85.79
2023-02-22T10:54:39.484Z,83.47
2023-02-22T10:57:09.612Z,83.07
2023-02-22T10:59:42.309Z,82.02
2023-02-22T11:02:54.385Z,79.75
2023-02-22T11:05:42.684Z,81.24
2023-02-22T11:08:38.809Z,79.75
2023-02-22T11:11:28.540Z,80.90
2023-02-22T11:14:00.177Z,78.98
2023-02-22T11:16:41.708Z,80.41
2023-02-22T11:19:31.149Z,79.12
2023-02-22T11:22:21.046Z,79.68
2023-02-22T11:27:32.535Z,78.03
2023-02-22T11:30:25.355Z,77.65
2023-02-22T11:32:59.285Z,77.67
2023-02-22T11:35:30.414Z,77.22
2023-02-22T11:38:19.625Z,74.79
2023-02-22T11:40:50.147Z,74.61
2023-02-22T11:43:20.172Z,73.76
2023-02-22T11:46:11.555Z,73.92
2023-02-22T11:48:44.681Z,74.71
2023-02-22T11:51:37.353Z,74.51
2023-02-22T11:54:30.289Z,72.70
2023-02-22T11:57:24.553Z,73.11
2023-02-22T12:00:25.502Z,71.91
2023-02-22T12:03:06.486Z,72.56
2023-02-22T12:06:11.608Z,73.32
2023-02-22T12:09:03.022Z,73.10
2023-02-22T12:12:26.584Z,71.78
2023-02-22T12:15:03.964Z,73.33
2023-02-22T12:17:54.333Z,72.50
2023-02-22T12:20:33.240Z,69.54
2023-02-22T12:23:15.802Z,71.19
2023-02-22T12:26:03.682Z,71.20
2023-02-22T12:28:47.770Z,69.43
2023-02-22T12:31:23.710Z,69.81
2023-02-22T12:34:36.137Z,69.70
2023-02-22T12:37:38.737Z,70.39
2023-02-22T12:40:36.777Z,70.30
2023-02-22T12:43:24.643Z,70.21
2023-02-22T12:46:39.337Z,68.04
2023-02-22T12:49:54.313Z,67.95
2023-02-22T12:53:15.454Z,66.61
2023-02-22T12:55:55.642Z,68.17
2023-02-22T12:58:43.432Z,67.97
2023-02-22T13:01:24.848Z,68.58
2023-02-22T13:03:55.327Z,68.58
2023-02-22T13:06:36.053Z,67.83
2023-02-22T13:09:11.805Z,69.05
2023-02-22T13:11:58.270Z,68.81
2023-02-22T13:14:42.009Z,67.74
2023-02-22T13:17:36.665Z,68.33
2023-02-22T13:20:23.023Z,67.46
2023-02-22T13:23:20.978Z,66.68
2023-02-22T13:26:16.346Z,66.84
2023-02-22T13:28:51.511Z,66.63
2023-02-22T13:31:54.522Z,66.07
2023-02-22T13:34:46.572Z,67.01
2023-02-22T13:37:41.235Z,67.20
2023-02-22T13:40:28.200Z,66.57
2023-02-22T13:43:09.436Z,65.41
2023-02-22T13:45:53.037Z,66.68
2023-02-22T13:48:28.701Z,67.68
2023-02-22T13:51:34.140Z,67.42
2023-02-22T13:54:10.482Z,66.06
2023-02-22T13:56:43.601Z,65.73
2023-02-22T13:59:32.437Z,65.92
2023-02-22T14:02:06.165Z,64.87
2023-02-22T14:04:41.550Z,65.10
2023-02-22T14:07:26.473Z,65.89
2023-02-22T14:09:56.559Z,64.32
2023-02-22T14:12:54.102Z,65.61
2023-02-22T14:15:31.262Z,65.33
2023-02-22T14:18:10.830Z,65.66
2023-02-22T14:20:40.394Z,66.75
2023-02-22T14:23:25.574Z,65.86
2023-02-22T14:25:51.998Z,65.98
2023-02-22T14:28:54.630Z,66.46
2023-02-22T14:31:35.604Z,66.50
2023-02-22T14:34:17.658Z,66.38
2023-02-22T14:37:15.411Z,66.25
2023-02-22T14:40:15.000Z,66.67
2023-02-22T14:42:51.989Z,67.29
2023-02-22T14:45:29.231Z,66.56
2023-02-22T14:48:14.436Z,66.29
2023-02-22T14:50:50.645Z,66.32
2023-02-22T14:53:40.568Z,65.54
2023-02-22T14:56:20.614Z,65.78
2023-02-22T14:59:08.320Z,66.87
2023-02-22T15:02:05.925Z,66.90
2023-02-22T15:04:30.843Z,67.23
2023-02-22T15:06:59.869Z,66.94
2023-02-22T15:09:36.601Z,66.67
2023-02-22T15:12:02.902Z,65.55
2023-02-22T15:14:33.434Z,65.94
2023-02-22T15:17:09.281Z,66.22
2023-02-22T15:19:40.307Z,66.40
2023-02-22T15:22:26.852Z,66.72
2023-02-22T15:25:02.263Z,66.28
2023-02-22T15:27:29.438Z,66.52
2023-02-22T15:30:04.295Z,67.15
2023-02-22T15:32:50.011Z,66.66
2023-02-22T15:35:24.069Z,67.01
2023-02-22T15:38:22.512Z,66.51
2023-02-22T15:41:00.570Z,66.66
2023-02-22T15:43:34.862Z,66.94
2023-02-22T15:46:10.919Z,67.14
2023-02-22T15:48:48.032Z,67.40
2023-02-22T15:51:17.383Z,67.14
2023-02-22T15:53:46.637Z,67.65
2023-02-22T15:56:19.244Z,67.56
2023-02-22T15:58:48.128Z,67.20
2023-02-22T16:01:19.252Z,67.58
2023-02-22T16:03:51.685Z,67.53
2023-02-22T16:06:35.109Z,67.75
2023-02-22T16:09:17.037Z,67.17
2023-02-22T16:11:53.059Z,67.41
2023-02-22T16:14:32.203Z,67.91
2023-02-22T16:17:24.741Z,67.62
2023-02-22T16:19:56.346Z,68.21
2023-02-22T16:22:49.842Z,67.96
2023-02-22T16:25:24.896Z,68.47
2023-02-22T16:28:01.652Z,68.40
2023-02-22T16:30:31.860Z,69.18
2023-02-22T16:32:59.682Z,69.43
2023-02-22T16:35:28.873Z,70.33
2023-02-22T16:38:08.128Z,70.36
2023-02-22T16:40:40.724Z,70.37
2023-02-22T16:43:17.999Z,71.26
2023-02-22T16:45:48.769Z,71.10
2023-02-22T16:48:25.230Z,71.79
2023-02-22T16:50:57.143Z,71.40
2023-02-22T16:53:28.212Z,71.76
2023-02-22T16:56:03.095Z,72.16
2023-02-22T16:58:34.312Z,72.14
2023-02-22T17:01:03.185Z,72.18
2023-02-22T17:03:34.600Z,71.98
2023-02-22T17:06:02.315Z,72.04
2023-02-22T17:08:37.888Z,72.25
2023-02-22T17:11:05.171Z,71.84
2023-02-22T17:13:32.309Z,72.64
2023-02-22T17:15:58.764Z,73.09
2023-02-22T17:18:28.445Z,73.45
2023-02-22T17:20:58.595Z,73.85
2023-02-22T17:23:32.169Z,73.97
2023-02-22T17:26:02.510Z,73.85
2023-02-22T17:28:31.223Z,74.23
2023-02-22T17:31:06.078Z,74.62
2023-02-22T17:33:37.157Z,74.78
2023-02-22T17:36:05.171Z,75.02
2023-02-22T17:38:41.909Z,75.33
2023-02-22T17:41:08.773Z,75.35
2023-02-22T17:43:35.554Z,75.64
2023-02-22T17:46:08.978Z,75.58
2023-02-22T17:48:39.663Z,75.71
2023-02-22T17:51:09.467Z,76.24
2023-02-22T17:53:38.893Z,76.43
2023-02-22T17:56:13.514Z,76.48
2023-02-22T17:58:41.928Z,76.55
2023-02-22T18:01:26.446Z,76.76
2023-02-22T18:03:56.861Z,77.00
2023-02-22T18:06:27.075Z,76.81
2023-02-22T18:09:02.100Z,76.52
2023-02-22T18:11:32.700Z,77.24
2023-02-22T18:14:05.069Z,77.26
2023-02-22T18:16:33.944Z,77.32
2023-02-22T18:19:06.680Z,77.41
2023-02-22T18:21:38.749Z,77.80
2023-02-22T18:24:10.010Z,77.83
2023-02-22T18:26:40.328Z,77.85
2023-02-22T18:29:12.426Z,78.41
2023-02-22T18:31:43.583Z,77.83
2023-02-22T18:34:15.200Z,78.29
2023-02-22T18:36:43.410Z,77.91
2023-02-22T18:39:14.336Z,78.48
2023-02-22T18:41:41.333Z,78.49
2023-02-22T18:44:10.347Z,77.97
2023-02-22T18:46:39.509Z,78.61
2023-02-22T18:49:06.274Z,78.44
2023-02-22T18:51:33.929Z,78.90
2023-02-22T18:54:01.764Z,79.03
2023-02-22T18:56:30.153Z,79.24
2023-02-22T18:58:59.541Z,78.81
2023-02-22T19:01:27.547Z,78.96
2023-02-22T19:03:57.920Z,79.37
2023-02-22T19:06:24.756Z,79.28
2023-02-22T19:08:51.510Z,79.18
2023-02-22T19:11:24.817Z,79.28
2023-02-22T19:14:00.774Z,79.62
2023-02-22T19:16:31.074Z,79.46
2023-02-22T19:18:59.105Z,80.18
2023-02-22T19:21:29.882Z,80.37
2023-02-22T19:23:56.346Z,80.50
2023-02-22T19:26:25.168Z,79.74
2023-02-22T19:28:54.894Z,80.71
2023-02-22T19:31:29.691Z,80.76
2023-02-22T19:34:09.534Z,80.90
2023-02-22T19:36:46.300Z,80.99
2023-02-22T19:39:17.160Z,80.99
2023-02-22T19:41:51.674Z,81.09
2023-02-22T19:44:19.846Z,80.79
2023-02-22T19:46:51.326Z,80.89
2023-02-22T19:49:22.137Z,81.05
2023-02-22T19:51:50.107Z,80.92
2023-02-22T19:54:25.055Z,81.04
2023-02-22T19:56:51.915Z,80.99
2023-02-22T19:59:24.939Z,81.16
2023-02-22T20:01:56.802Z,80.63
2023-02-22T20:04:30.854Z,80.51
2023-02-22T20:07:07.296Z,80.40
2023-02-22T20:09:40.228Z,80.92
2023-02-22T20:12:11.233Z,81.05
2023-02-22T20:14:44.174Z,81.10
2023-02-22T20:17:13.084Z,81.89
2023-02-22T20:19:45.716Z,81.96
2023-02-22T20:22:18.624Z,82.42
2023-02-22T20:24:52.262Z,81.27
2023-02-22T20:27:29.868Z,82.03
2023-02-22T20:29:58.215Z,81.82
2023-02-22T20:32:28.465Z,81.55
2023-02-22T20:35:00.284Z,81.24
2023-02-22T20:37:30.638Z,82.24
2023-02-22T20:40:05.621Z,82.31
2023-02-22T20:42:35.156Z,81.72
2023-02-22T20:45:17.265Z,82.31
2023-02-22T20:47:45.920Z,82.08
2023-02-22T20:50:17.386Z,81.61
2023-02-22T20:52:48.243Z,82.52
2023-02-22T20:55:17.617Z,81.47
2023-02-22T20:57:47.184Z,81.59
2023-02-22T21:00:19.169Z,81.63
2023-02-22T21:02:49.112Z,81.99
2023-02-22T21:05:16.414Z,82.20
2023-02-22T21:07:47.634Z,82.43
2023-02-22T21:10:16.578Z,82.18
2023-02-22T21:12:52.335Z,82.39
2023-02-22T21:15:21.439Z,83.23
2023-02-22T21:17:51.184Z,82.63
2023-02-22T21:20:21.798Z,82.11
2023-02-22T21:22:51.940Z,82.59
2023-02-22T21:25:20.831Z,83.09
2023-02-22T21:27:47.810Z,83.40
2023-02-22T21:30:15.071Z,82.93
2023-02-22T21:32:41.978Z,82.48
2023-02-22T21:35:08.976Z,83.04
2023-02-22T21:37:35.423Z,83.02
2023-02-22T21:40:01.861Z,82.40
2023-02-22T21:42:28.457Z,82.30
2023-02-22T21:44:57.895Z,83.10
2023-02-22T21:47:24.541Z,82.95
2023-02-22T21:49:50.951Z,83.11
2023-02-22T21:52:18.449Z,83.32
2023-02-22T21:54:44.935Z,83.00
2023-02-22T21:57:11.426Z,83.81
2023-02-22T21:59:39.398Z,83.20
2023-02-22T22:02:06.125Z,83.17
2023-02-22T22:04:34.896Z,83.85
2023-02-22T22:07:03.798Z,83.33
2023-02-22T22:09:37.732Z,83.58
2023-02-22T22:12:10.774Z,83.65
2023-02-22T22:14:37.812Z,83.84
2023-02-22T22:17:07.927Z,83.63
2023-02-22T22:19:39.076Z,83.84
2023-02-22T22:22:05.577Z,83.64
2023-02-22T22:24:34.067Z,83.38
2023-02-22T22:27:03.761Z,84.00
2023-02-22T22:29:31.146Z,83.66
2023-02-22T22:31:57.709Z,82.94
2023-02-22T22:34:24.416Z,83.16
2023-02-22T22:36:51.107Z,83.42
2023-02-22T22:39:20.890Z,82.46
2023-02-22T22:41:47.821Z,83.07
2023-02-22T22:44:16.056Z,83.17
2023-02-22T22:46:43.660Z,83.10
2023-02-22T22:49:12.793Z,82.62
2023-02-22T22:51:43.227Z,83.03
2023-02-22T22:54:10.385Z,82.66
2023-02-22T22:56:37.855Z,82.59
2023-02-22T22:59:07.756Z,82.90
2023-02-22T23:01:40.480Z,82.40
2023-02-22T23:04:11.788Z,83.04
2023-02-22T23:06:41.097Z,82.59
2023-02-22T23:09:21.636Z,83.45
2023-02-22T23:11:50.618Z,82.91
2023-02-22T23:14:19.890Z,83.13
2023-02-22T23:16:50.830Z,82.41
2023-02-22T23:19:19.292Z,82.27
2023-02-22T23:21:47.702Z,82.07
2023-02-22T23:24:15.360Z,82.97
2023-02-22T23:26:42.379Z,83.32
2023-02-22T23:29:11.465Z,83.19
2023-02-22T23:31:39.592Z,84.16
2023-02-22T23:34:11.001Z,83.46
2023-02-22T23:36:39.127Z,83.16
2023-02-22T23:39:06.694Z,82.96
2023-02-22T23:41:36.313Z,83.73
2023-02-22T23:44:10.778Z,83.29
2023-02-22T23:46:43.361Z,83.13
2023-02-22T23:49:14.719Z,82.78
2023-02-22T23:51:44.476Z,82.74
2023-02-22T23:54:21.624Z,83.44
2023-02-22T23:56:57.069Z,83.79
2023-02-22T23:59:27.303Z,83.34
